Sky Glory — DSQP3 — position and weather

sailwx.info

Track history (hours):
 
Tides and Currents Weather Stations Pressure Air Temp Water Temp Dewpoint Dewpoint Depression Visibility Wind Speed Wind Dir Waves Ship Positions

Sky Glory

Last reported at 2017-Dec-02 09:11 UTC. Time now 2017-Dec-13 18:58 UTC.
Position N 34°31' E 130°01'.
Warning: this ship's position is 11 days out of date.

Length 101 m; draft 6 m.

Type: Cargo ship. MMSI: 441654000.

Date/timePositionNaut miles runAvg speedWind from/ knotsBaromVisibWave heightAir tempDewpointWater temp
2017-Dec-02 09:11N 34°31' E 130°01'211.3
2017-Dec-02 09:00N 34°30' E 130°03'611.1
2017-Dec-02 08:30N 34°27' E 130°09'611.1
2017-Dec-02 08:00N 34°24' E 130°14'510.8
2017-Dec-02 07:30N 34°20' E 130°19'510.9
2017-Dec-02 07:00N 34°17' E 130°24'510.9
2017-Dec-02 06:30N 34°14' E 130°30'510.9
2017-Dec-02 06:01N 34°11' E 130°35'510.9
2017-Dec-02 05:31N 34°08' E 130°40'611.1
2017-Dec-02 05:00N 34°04' E 130°46'510.6
2017-Dec-02 04:30N 34°01' E 130°50'5 9.9
2017-Dec-02 04:00N 33°56' E 130°53'3 5.6
2017-Dec-02 03:30N 33°56' E 130°56'5 9.3
2017-Dec-02 03:00N 33°59' E 131°01'510.8
2017-Dec-02 02:30N 33°55' E 131°06'510.7
2017-Dec-02 02:00N 33°53' E 131°11'510.7
2017-Dec-02 01:30N 33°51' E 131°18'510.8
2017-Dec-02 01:00N 33°50' E 131°24'611.0
2017-Dec-02 00:27N 33°48' E 131°31'510.8
2017-Dec-01 23:57N 33°47' E 131°37'611.1
2017-Dec-01 23:27N 33°46' E 131°44'611.4
2017-Dec-01 22:58N 33°45' E 131°51'2310.6
2017-Dec-01 20:49N 33°45' E 132°18'610.8
2017-Dec-01 20:18N 33°46' E 132°24'310.6
2017-Dec-01 20:00N 33°48' E 132°27'510.8
2017-Dec-01 19:30N 33°51' E 132°33'510.9
2017-Dec-01 19:00N 33°55' E 132°38'611.4
2017-Dec-01 18:30N 33°58' E 132°43'8010.2
2017-Dec-01 10:42N 34°24' E 134°14'210.9
2017-Dec-01 10:30N 34°24' E 134°17'511.1
2017-Dec-01 10:00N 34°25' E 134°23'511.0
2017-Dec-01 09:30N 34°27' E 134°29'611.0
2017-Dec-01 09:00N 34°29' E 134°36'611.1
2017-Dec-01 08:30N 34°32' E 134°42'611.4
2017-Dec-01 08:01N 34°34' E 134°48'611.7
2017-Dec-01 07:30N 34°36' E 134°55'510.7
2017-Dec-01 07:01N 34°37' E 135°01'510.3
2017-Dec-01 06:30N 34°36' E 135°07'510.7
2017-Dec-01 06:00N 34°37' E 135°14'4 8.0
2017-Dec-01 05:30N 34°41' E 135°15'1 2.6
2017-Dec-01 04:59N 34°42' E 135°13'0 0.1
2017-Dec-01 04:29N 34°42' E 135°14'0 0.1
2017-Dec-01 03:59N 34°42' E 135°13'0 0.0
2017-Dec-01 03:29N 34°42' E 135°13'0 0.0
2017-Dec-01 02:59N 34°42' E 135°13'0 0.0
2017-Dec-01 02:29N 34°42' E 135°13'0 0.1
2017-Dec-01 01:59N 34°42' E 135°14'0 0.0
2017-Dec-01 01:29N 34°42' E 135°14'0 0.0
2017-Dec-01 00:59N 34°42' E 135°14'0 0.1
2017-Dec-01 00:29N 34°42' E 135°13'0 0.0
2017-Nov-30 23:59N 34°42' E 135°13'0 0.0
2017-Nov-30 23:29N 34°42' E 135°13'0 0.1
2017-Nov-30 22:59N 34°42' E 135°14'0 0.0
2017-Nov-30 22:29N 34°42' E 135°14'0 0.1
2017-Nov-30 21:59N 34°42' E 135°13'0 0.0
2017-Nov-30 21:29N 34°42' E 135°13'0 0.0
2017-Nov-30 20:59N 34°42' E 135°13'0 0.0
2017-Nov-30 20:29N 34°42' E 135°13'0 0.0
2017-Nov-30 19:59N 34°42' E 135°13'0 0.0
2017-Nov-30 19:29N 34°42' E 135°13'0 0.0
2017-Nov-30 18:59N 34°42' E 135°13'0 0.0
2017-Nov-30 18:29N 34°42' E 135°13'0 0.1
2017-Nov-30 17:59N 34°42' E 135°14'0 0.1
2017-Nov-30 17:29N 34°42' E 135°13'0 0.0
2017-Nov-30 16:59N 34°42' E 135°13'0 0.0
2017-Nov-30 16:29N 34°42' E 135°13'0 0.0
2017-Nov-30 15:59N 34°42' E 135°13'0 0.1
2017-Nov-30 15:29N 34°42' E 135°14'0 0.1
2017-Nov-30 14:59N 34°42' E 135°13'0 0.0
2017-Nov-30 14:29N 34°42' E 135°13'0 0.0
2017-Nov-30 13:59N 34°42' E 135°13'0 0.0
2017-Nov-30 13:29N 34°42' E 135°13'0 0.0
2017-Nov-30 12:59N 34°42' E 135°13'0 0.1
2017-Nov-30 12:29N 34°42' E 135°14'0 0.1
2017-Nov-30 11:59N 34°42' E 135°13'0 0.0
2017-Nov-30 11:29N 34°42' E 135°13'0 0.0
2017-Nov-30 10:59N 34°42' E 135°13'0 0.1
2017-Nov-30 10:29N 34°42' E 135°14'0 0.1
2017-Nov-30 09:59N 34°42' E 135°13'0 0.0
2017-Nov-30 09:29N 34°42' E 135°13'0 0.1
2017-Nov-30 08:59N 34°42' E 135°14'0 0.1
2017-Nov-30 08:29N 34°42' E 135°13'0 0.0
2017-Nov-30 07:59N 34°42' E 135°13'0 0.0
2017-Nov-30 07:29N 34°42' E 135°13'0 0.0
2017-Nov-30 06:59N 34°42' E 135°13'0 0.1
2017-Nov-30 06:29N 34°42' E 135°14'0 0.1
2017-Nov-30 05:59N 34°42' E 135°13'0 0.0
2017-Nov-30 05:29N 34°42' E 135°13'0 0.0
2017-Nov-30 04:59N 34°42' E 135°13'0 0.0
2017-Nov-30 04:29N 34°42' E 135°13'0 0.0
2017-Nov-30 03:59N 34°42' E 135°13'0 0.0
2017-Nov-30 03:29N 34°42' E 135°13'0 0.0
2017-Nov-30 02:59N 34°42' E 135°13'0 0.0
2017-Nov-30 02:29N 34°42' E 135°13'0 0.0
2017-Nov-30 01:59N 34°42' E 135°13'0 0.1
2017-Nov-30 01:29N 34°42' E 135°14'0 0.0
2017-Nov-30 00:59N 34°42' E 135°14'0 0.1
2017-Nov-30 00:29N 34°42' E 135°13'0 0.0
2017-Nov-29 23:59N 34°42' E 135°13'0 0.0
2017-Nov-29 23:29N 34°42' E 135°13'0 0.1
2017-Nov-29 22:59N 34°42' E 135°14'0 0.1
2017-Nov-29 22:29N 34°42' E 135°13'0 0.0
2017-Nov-29 21:59N 34°42' E 135°13'0 0.0
2017-Nov-29 21:29N 34°42' E 135°13'0 0.0
2017-Nov-29 20:59N 34°42' E 135°13'0 0.0
2017-Nov-29 20:29N 34°42' E 135°13'0 0.0
2017-Nov-29 19:53N 34°42' E 135°13'0 0.0
2017-Nov-29 19:29N 34°42' E 135°13'0 0.0
2017-Nov-29 18:59N 34°42' E 135°13'0 0.1
2017-Nov-29 18:29N 34°42' E 135°14'0 0.0
2017-Nov-29 17:59N 34°42' E 135°14'0 0.1
2017-Nov-29 17:29N 34°42' E 135°13'0 0.0
2017-Nov-29 16:59N 34°42' E 135°13'0 0.0
2017-Nov-29 16:29N 34°42' E 135°13'0 0.0
2017-Nov-29 15:59N 34°42' E 135°13'0 0.0
2017-Nov-29 15:29N 34°42' E 135°13'0 0.0
2017-Nov-29 14:59N 34°42' E 135°13'0 0.0
2017-Nov-29 14:29N 34°42' E 135°13'0 0.0
2017-Nov-29 13:59N 34°42' E 135°13'0 0.0
2017-Nov-29 13:29N 34°42' E 135°13'0 0.1
2017-Nov-29 12:59N 34°42' E 135°14'0 0.1
2017-Nov-29 12:29N 34°42' E 135°13'0 0.0
2017-Nov-29 11:59N 34°42' E 135°13'0 0.0
2017-Nov-29 11:29N 34°42' E 135°13'0 0.0
2017-Nov-29 10:59N 34°42' E 135°13'0 0.0
2017-Nov-29 10:29N 34°42' E 135°13'0 0.0
2017-Nov-29 09:59N 34°42' E 135°13'0 0.0
2017-Nov-29 09:29N 34°42' E 135°13'0 0.0
2017-Nov-29 08:59N 34°42' E 135°13'0 0.0
2017-Nov-29 08:29N 34°42' E 135°13'0 0.0
2017-Nov-29 07:59N 34°42' E 135°13'0 0.0
2017-Nov-29 07:29N 34°42' E 135°13'0 0.0
2017-Nov-29 06:59N 34°42' E 135°13'0 0.1
2017-Nov-29 06:29N 34°42' E 135°14'0 0.1
2017-Nov-29 05:59N 34°42' E 135°13'0 0.0
2017-Nov-29 05:29N 34°42' E 135°13'0 0.0
2017-Nov-29 04:59N 34°42' E 135°13'0 0.0
2017-Nov-29 04:29N 34°42' E 135°13'0 0.0
2017-Nov-29 03:59N 34°42' E 135°13'0 0.0
2017-Nov-29 03:29N 34°42' E 135°13'0 0.0
2017-Nov-29 02:59N 34°42' E 135°13'0 0.0
2017-Nov-29 02:29N 34°42' E 135°13'0 0.0
2017-Nov-29 01:59N 34°42' E 135°13'0 0.1
2017-Nov-29 01:29N 34°42' E 135°14'0 0.0
2017-Nov-29 00:59N 34°42' E 135°14'0 0.1
2017-Nov-29 00:29N 34°42' E 135°13'0 0.0
2017-Nov-28 23:59N 34°42' E 135°13'0 0.0
2017-Nov-28 23:29N 34°42' E 135°13'0 0.1
2017-Nov-28 22:59N 34°42' E 135°14'0 0.0
2017-Nov-28 22:29N 34°42' E 135°14'0 0.2
2017-Nov-28 22:00N 34°41' E 135°14'2 3.7
2017-Nov-28 21:30N 34°40' E 135°15'4 8.1
2017-Nov-28 21:00N 34°36' E 135°14'3 6.0
2017-Nov-28 20:30N 34°33' E 135°14'2 4.7
2017-Nov-28 20:00N 34°35' E 135°14'5 9.4
2017-Nov-28 19:30N 34°35' E 135°08'4 8.8
2017-Nov-28 19:01N 34°36' E 135°03'4 7.0
2017-Nov-28 18:30N 34°37' E 134°59'5 9.7
2017-Nov-28 18:00N 34°35' E 134°53'4 9.0
2017-Nov-28 17:30N 34°33' E 134°49'5 9.3
2017-Nov-28 17:00N 34°31' E 134°43'5 9.7
2017-Nov-28 16:30N 34°29' E 134°38'5 9.9
2017-Nov-28 16:00N 34°28' E 134°33'89 9.5
2017-Nov-28 06:40N 34°04' E 132°49'210.5
2017-Nov-28 06:30N 34°03' E 132°48'510.5
2017-Nov-28 06:00N 33°59' E 132°44'510.3
2017-Nov-28 05:30N 33°55' E 132°39'2010.7
2017-Nov-28 03:36N 33°44' E 132°19'210.1
2017-Nov-28 03:23N 33°43' E 132°16'14 9.9
2017-Nov-28 01:59N 33°43' E 131°60'510.1
2017-Nov-28 01:29N 33°44' E 131°54'510.2
2017-Nov-28 00:59N 33°44' E 131°48'510.1
2017-Nov-28 00:31N 33°46' E 131°42'510.7
2017-Nov-28 00:01N 33°47' E 131°36'510.7
2017-Nov-27 23:30N 33°48' E 131°30'510.8
2017-Nov-27 23:00N 33°49' E 131°23'510.8
2017-Nov-27 22:30N 33°50' E 131°17'510.5
2017-Nov-27 22:00N 33°52' E 131°11'510.5
2017-Nov-27 21:30N 33°55' E 131°06'510.4
2017-Nov-27 21:00N 33°58' E 131°01'5 9.2
2017-Nov-27 20:30N 33°56' E 130°56'3 6.4
2017-Nov-27 20:00N 33°56' E 130°52'5 9.5
2017-Nov-27 19:30N 34°00' E 130°50'5 9.7
2017-Nov-27 19:01N 34°04' E 130°46'510.0
2017-Nov-27 18:30N 34°06' E 130°41'5 9.8
2017-Nov-27 18:00N 34°09' E 130°36'5 9.8
2017-Nov-27 17:31N 34°12' E 130°32'5 9.7
2017-Nov-27 17:00N 34°15' E 130°27'5 9.6
2017-Nov-27 16:30N 34°18' E 130°22'5 9.5
2017-Nov-27 16:00N 34°21' E 130°18'5 9.7
2017-Nov-27 15:30N 34°24' E 130°13'510.0
2017-Nov-27 15:00N 34°27' E 130°08'  
2017-Nov-25 09:28N 34°30' E 130°05'510.5
2017-Nov-25 09:01N 34°27' E 130°09'510.6
2017-Nov-25 08:31N 34°24' E 130°14'510.5
2017-Nov-25 08:00N 34°21' E 130°19'510.6
2017-Nov-25 07:30N 34°17' E 130°25'510.7
2017-Nov-25 07:00N 34°14' E 130°30'510.5
2017-Nov-25 06:31N 34°11' E 130°35'510.6
2017-Nov-25 06:01N 34°08' E 130°40'510.6
2017-Nov-25 05:31N 34°04' E 130°45'510.7
2017-Nov-25 05:01N 34°01' E 130°50'510.8
2017-Nov-25 04:30N 33°56' E 130°53'5 9.0
2017-Nov-25 04:00N 33°58' E 130°58'19510.0
2017-Nov-24 08:29N 34°34' E 134°50'5 7.8
2017-Nov-24 07:52N 34°36' E 134°55'3 8.6
2017-Nov-24 07:30N 34°38' E 134°59'4 7.8
2017-Nov-24 07:00N 34°36' E 135°03'5 9.3
2017-Nov-24 06:30N 34°35' E 135°09'5 9.5
2017-Nov-24 06:00N 34°37' E 135°14'4 7.9
2017-Nov-24 05:30N 34°41' E 135°14'1 1.8
2017-Nov-24 04:59N 34°42' E 135°13'0 0.0
2017-Nov-24 04:17N 34°42' E 135°13'0 0.0
2017-Nov-24 03:59N 34°42' E 135°13'0 0.0
2017-Nov-24 03:23N 34°42' E 135°13'0 0.0
2017-Nov-24 02:59N 34°42' E 135°13'0 0.0
2017-Nov-24 02:29N 34°42' E 135°13'0 0.0
2017-Nov-24 01:47N 34°42' E 135°13'0 0.0
2017-Nov-24 01:29N 34°42' E 135°13'0 0.0
2017-Nov-24 00:59N 34°42' E 135°13'0 0.0
2017-Nov-24 00:29N 34°42' E 135°13'0 0.0
2017-Nov-23 23:59N 34°42' E 135°13'0 0.0
2017-Nov-23 23:29N 34°42' E 135°13'0 0.0
2017-Nov-23 22:59N 34°42' E 135°13'0 0.0
2017-Nov-23 22:29N 34°42' E 135°13'0 0.0
2017-Nov-23 21:59N 34°42' E 135°13'0 0.0
2017-Nov-23 21:29N 34°42' E 135°13'0 0.0
2017-Nov-23 20:59N 34°42' E 135°13'0 0.0
2017-Nov-23 20:23N 34°42' E 135°13'0 0.0
2017-Nov-23 19:53N 34°42' E 135°13'0 0.0
2017-Nov-23 19:29N 34°42' E 135°13'0 0.0
2017-Nov-23 18:53N 34°42' E 135°13'0 0.0
2017-Nov-23 18:29N 34°42' E 135°13'0 0.0
2017-Nov-23 17:53N 34°42' E 135°13'0 0.0
2017-Nov-23 17:23N 34°42' E 135°13'0 0.0
2017-Nov-23 16:59N 34°42' E 135°13'0 0.0
2017-Nov-23 16:29N 34°42' E 135°13'0 0.0
2017-Nov-23 15:59N 34°42' E 135°13'0 0.0
2017-Nov-23 15:29N 34°42' E 135°13'0 0.0
2017-Nov-23 14:47N 34°42' E 135°13'0 0.0
2017-Nov-23 14:23N 34°42' E 135°13'0 0.0
2017-Nov-23 13:59N 34°42' E 135°13'0 0.0
2017-Nov-23 13:29N 34°42' E 135°13'0 0.0
2017-Nov-23 12:53N 34°42' E 135°13'0 0.0
2017-Nov-23 12:29N 34°42' E 135°13'0 0.0
2017-Nov-23 11:59N 34°42' E 135°13'0 0.0
2017-Nov-23 11:29N 34°42' E 135°13'0 0.0
2017-Nov-23 10:59N 34°42' E 135°13'0 0.0
2017-Nov-23 10:29N 34°42' E 135°13'0 0.0
2017-Nov-23 09:41N 34°42' E 135°13'0 0.0
2017-Nov-23 09:29N 34°42' E 135°13'0 0.0
2017-Nov-23 08:41N 34°42' E 135°13'0 0.0
2017-Nov-23 08:29N 34°42' E 135°13'0 0.0
2017-Nov-23 07:59N 34°42' E 135°13'0 0.0
2017-Nov-23 07:23N 34°42' E 135°13'0 0.0
2017-Nov-23 06:59N 34°42' E 135°13'0 0.0
2017-Nov-23 06:05N 34°42' E 135°13'0 0.0
2017-Nov-23 05:53N 34°42' E 135°13'0 0.0
2017-Nov-23 05:23N 34°42' E 135°13'0 0.0
2017-Nov-23 04:59N 34°42' E 135°13'0 0.0
2017-Nov-23 04:29N 34°42' E 135°13'0 0.0
2017-Nov-23 03:59N 34°42' E 135°13'0 0.0
2017-Nov-23 03:29N 34°42' E 135°13'0 0.0
2017-Nov-23 02:53N 34°42' E 135°13'0 0.0
2017-Nov-23 02:23N 34°42' E 135°13'0 0.0
2017-Nov-23 01:59N 34°42' E 135°13'0 0.0
2017-Nov-23 01:29N 34°42' E 135°13'0 0.0
2017-Nov-23 00:59N 34°42' E 135°13'1 1.5
2017-Nov-23 00:31N 34°41' E 135°14'3 5.2
2017-Nov-23 00:00N 34°39' E 135°16'2 3.1
2017-Nov-22 23:26N 34°37' E 135°15'0 0.0
2017-Nov-22 22:56N 34°37' E 135°15'0 0.0
2017-Nov-22 22:26N 34°37' E 135°15'0 0.2
2017-Nov-22 21:59N 34°37' E 135°15'0 0.0
2017-Nov-22 21:29N 34°37' E 135°15'0 0.0
2017-Nov-22 20:59N 34°37' E 135°15'0 0.0
2017-Nov-22 20:29N 34°37' E 135°15'0 0.0
2017-Nov-22 19:59N 34°37' E 135°15'0 0.0
2017-Nov-22 19:20N 34°37' E 135°15'  
Track history (hours):
 
Tides and Currents Weather Stations Pressure Air Temp Water Temp Dewpoint Dewpoint Depression Visibility Wind Speed Wind Dir Waves Ship Positions

Sky Glory

Last reported at 2017-Dec-02 09:11 UTC. Time now 2017-Dec-13 18:58 UTC.
Position N 34°31' E 130°01'.
Warning: this ship's position is 11 days out of date.

Length 101 m; draft 6 m.

Type: Cargo ship. MMSI: 441654000.

Date/timePositionNaut miles runAvg speedWind from/ knotsBaromVisibWave heightAir tempDewpointWater temp
2017-Dec-02 09:11N 34°31' E 130°01'211.3
2017-Dec-02 09:00N 34°30' E 130°03'611.1
2017-Dec-02 08:30N 34°27' E 130°09'611.1
2017-Dec-02 08:00N 34°24' E 130°14'510.8
2017-Dec-02 07:30N 34°20' E 130°19'510.9
2017-Dec-02 07:00N 34°17' E 130°24'510.9
2017-Dec-02 06:30N 34°14' E 130°30'510.9
2017-Dec-02 06:01N 34°11' E 130°35'510.9
2017-Dec-02 05:31N 34°08' E 130°40'611.1
2017-Dec-02 05:00N 34°04' E 130°46'510.6
2017-Dec-02 04:30N 34°01' E 130°50'5 9.9
2017-Dec-02 04:00N 33°56' E 130°53'3 5.6
2017-Dec-02 03:30N 33°56' E 130°56'5 9.3
2017-Dec-02 03:00N 33°59' E 131°01'510.8
2017-Dec-02 02:30N 33°55' E 131°06'510.7
2017-Dec-02 02:00N 33°53' E 131°11'510.7
2017-Dec-02 01:30N 33°51' E 131°18'510.8
2017-Dec-02 01:00N 33°50' E 131°24'611.0
2017-Dec-02 00:27N 33°48' E 131°31'510.8
2017-Dec-01 23:57N 33°47' E 131°37'611.1
2017-Dec-01 23:27N 33°46' E 131°44'611.4
2017-Dec-01 22:58N 33°45' E 131°51'2310.6
2017-Dec-01 20:49N 33°45' E 132°18'610.8
2017-Dec-01 20:18N 33°46' E 132°24'310.6
2017-Dec-01 20:00N 33°48' E 132°27'510.8
2017-Dec-01 19:30N 33°51' E 132°33'510.9
2017-Dec-01 19:00N 33°55' E 132°38'611.4
2017-Dec-01 18:30N 33°58' E 132°43'8010.2
2017-Dec-01 10:42N 34°24' E 134°14'210.9
2017-Dec-01 10:30N 34°24' E 134°17'511.1
2017-Dec-01 10:00N 34°25' E 134°23'511.0
2017-Dec-01 09:30N 34°27' E 134°29'611.0
2017-Dec-01 09:00N 34°29' E 134°36'611.1
2017-Dec-01 08:30N 34°32' E 134°42'611.4
2017-Dec-01 08:01N 34°34' E 134°48'611.7
2017-Dec-01 07:30N 34°36' E 134°55'510.7
2017-Dec-01 07:01N 34°37' E 135°01'510.3
2017-Dec-01 06:30N 34°36' E 135°07'510.7
2017-Dec-01 06:00N 34°37' E 135°14'4 8.0
2017-Dec-01 05:30N 34°41' E 135°15'1 2.6
2017-Dec-01 04:59N 34°42' E 135°13'0 0.1
2017-Dec-01 04:29N 34°42' E 135°14'0 0.1
2017-Dec-01 03:59N 34°42' E 135°13'0 0.0
2017-Dec-01 03:29N 34°42' E 135°13'0 0.0
2017-Dec-01 02:59N 34°42' E 135°13'0 0.0
2017-Dec-01 02:29N 34°42' E 135°13'0 0.1
2017-Dec-01 01:59N 34°42' E 135°14'0 0.0
2017-Dec-01 01:29N 34°42' E 135°14'0 0.0
2017-Dec-01 00:59N 34°42' E 135°14'0 0.1
2017-Dec-01 00:29N 34°42' E 135°13'0 0.0
2017-Nov-30 23:59N 34°42' E 135°13'0 0.0
2017-Nov-30 23:29N 34°42' E 135°13'0 0.1
2017-Nov-30 22:59N 34°42' E 135°14'0 0.0
2017-Nov-30 22:29N 34°42' E 135°14'0 0.1
2017-Nov-30 21:59N 34°42' E 135°13'0 0.0
2017-Nov-30 21:29N 34°42' E 135°13'0 0.0
2017-Nov-30 20:59N 34°42' E 135°13'0 0.0
2017-Nov-30 20:29N 34°42' E 135°13'0 0.0
2017-Nov-30 19:59N 34°42' E 135°13'0 0.0
2017-Nov-30 19:29N 34°42' E 135°13'0 0.0
2017-Nov-30 18:59N 34°42' E 135°13'0 0.0
2017-Nov-30 18:29N 34°42' E 135°13'0 0.1
2017-Nov-30 17:59N 34°42' E 135°14'0 0.1
2017-Nov-30 17:29N 34°42' E 135°13'0 0.0
2017-Nov-30 16:59N 34°42' E 135°13'0 0.0
2017-Nov-30 16:29N 34°42' E 135°13'0 0.0
2017-Nov-30 15:59N 34°42' E 135°13'0 0.1
2017-Nov-30 15:29N 34°42' E 135°14'0 0.1
2017-Nov-30 14:59N 34°42' E 135°13'0 0.0
2017-Nov-30 14:29N 34°42' E 135°13'0 0.0
2017-Nov-30 13:59N 34°42' E 135°13'0 0.0
2017-Nov-30 13:29N 34°42' E 135°13'0 0.0
2017-Nov-30 12:59N 34°42' E 135°13'0 0.1
2017-Nov-30 12:29N 34°42' E 135°14'0 0.1
2017-Nov-30 11:59N 34°42' E 135°13'0 0.0
2017-Nov-30 11:29N 34°42' E 135°13'0 0.0
2017-Nov-30 10:59N 34°42' E 135°13'0 0.1
2017-Nov-30 10:29N 34°42' E 135°14'0 0.1
2017-Nov-30 09:59N 34°42' E 135°13'0 0.0
2017-Nov-30 09:29N 34°42' E 135°13'0 0.1
2017-Nov-30 08:59N 34°42' E 135°14'0 0.1
2017-Nov-30 08:29N 34°42' E 135°13'0 0.0
2017-Nov-30 07:59N 34°42' E 135°13'0 0.0
2017-Nov-30 07:29N 34°42' E 135°13'0 0.0
2017-Nov-30 06:59N 34°42' E 135°13'0 0.1
2017-Nov-30 06:29N 34°42' E 135°14'0 0.1
2017-Nov-30 05:59N 34°42' E 135°13'0 0.0
2017-Nov-30 05:29N 34°42' E 135°13'0 0.0
2017-Nov-30 04:59N 34°42' E 135°13'0 0.0
2017-Nov-30 04:29N 34°42' E 135°13'0 0.0
2017-Nov-30 03:59N 34°42' E 135°13'0 0.0
2017-Nov-30 03:29N 34°42' E 135°13'0 0.0
2017-Nov-30 02:59N 34°42' E 135°13'0 0.0
2017-Nov-30 02:29N 34°42' E 135°13'0 0.0
2017-Nov-30 01:59N 34°42' E 135°13'0 0.1
2017-Nov-30 01:29N 34°42' E 135°14'0 0.0
2017-Nov-30 00:59N 34°42' E 135°14'0 0.1
2017-Nov-30 00:29N 34°42' E 135°13'0 0.0
2017-Nov-29 23:59N 34°42' E 135°13'0 0.0
2017-Nov-29 23:29N 34°42' E 135°13'0 0.1
2017-Nov-29 22:59N 34°42' E 135°14'0 0.1
2017-Nov-29 22:29N 34°42' E 135°13'0 0.0
2017-Nov-29 21:59N 34°42' E 135°13'0 0.0
2017-Nov-29 21:29N 34°42' E 135°13'0 0.0
2017-Nov-29 20:59N 34°42' E 135°13'0 0.0
2017-Nov-29 20:29N 34°42' E 135°13'0 0.0
2017-Nov-29 19:53N 34°42' E 135°13'0 0.0
2017-Nov-29 19:29N 34°42' E 135°13'0 0.0
2017-Nov-29 18:59N 34°42' E 135°13'0 0.1
2017-Nov-29 18:29N 34°42' E 135°14'0 0.0
2017-Nov-29 17:59N 34°42' E 135°14'0 0.1
2017-Nov-29 17:29N 34°42' E 135°13'0 0.0
2017-Nov-29 16:59N 34°42' E 135°13'0 0.0
2017-Nov-29 16:29N 34°42' E 135°13'0 0.0
2017-Nov-29 15:59N 34°42' E 135°13'0 0.0
2017-Nov-29 15:29N 34°42' E 135°13'0 0.0
2017-Nov-29 14:59N 34°42' E 135°13'0 0.0
2017-Nov-29 14:29N 34°42' E 135°13'0 0.0
2017-Nov-29 13:59N 34°42' E 135°13'0 0.0
2017-Nov-29 13:29N 34°42' E 135°13'0 0.1
2017-Nov-29 12:59N 34°42' E 135°14'0 0.1
2017-Nov-29 12:29N 34°42' E 135°13'0 0.0
2017-Nov-29 11:59N 34°42' E 135°13'0 0.0
2017-Nov-29 11:29N 34°42' E 135°13'0 0.0
2017-Nov-29 10:59N 34°42' E 135°13'0 0.0
2017-Nov-29 10:29N 34°42' E 135°13'0 0.0
2017-Nov-29 09:59N 34°42' E 135°13'0 0.0
2017-Nov-29 09:29N 34°42' E 135°13'0 0.0
2017-Nov-29 08:59N 34°42' E 135°13'0 0.0
2017-Nov-29 08:29N 34°42' E 135°13'0 0.0
2017-Nov-29 07:59N 34°42' E 135°13'0 0.0
2017-Nov-29 07:29N 34°42' E 135°13'0 0.0
2017-Nov-29 06:59N 34°42' E 135°13'0 0.1
2017-Nov-29 06:29N 34°42' E 135°14'0 0.1
2017-Nov-29 05:59N 34°42' E 135°13'0 0.0
2017-Nov-29 05:29N 34°42' E 135°13'0 0.0
2017-Nov-29 04:59N 34°42' E 135°13'0 0.0
2017-Nov-29 04:29N 34°42' E 135°13'0 0.0
2017-Nov-29 03:59N 34°42' E 135°13'0 0.0
2017-Nov-29 03:29N 34°42' E 135°13'0 0.0
2017-Nov-29 02:59N 34°42' E 135°13'0 0.0
2017-Nov-29 02:29N 34°42' E 135°13'0 0.0
2017-Nov-29 01:59N 34°42' E 135°13'0 0.1
2017-Nov-29 01:29N 34°42' E 135°14'0 0.0
2017-Nov-29 00:59N 34°42' E 135°14'0 0.1
2017-Nov-29 00:29N 34°42' E 135°13'0 0.0
2017-Nov-28 23:59N 34°42' E 135°13'0 0.0
2017-Nov-28 23:29N 34°42' E 135°13'0 0.1
2017-Nov-28 22:59N 34°42' E 135°14'0 0.0
2017-Nov-28 22:29N 34°42' E 135°14'0 0.2
2017-Nov-28 22:00N 34°41' E 135°14'2 3.7
2017-Nov-28 21:30N 34°40' E 135°15'4 8.1
2017-Nov-28 21:00N 34°36' E 135°14'3 6.0
2017-Nov-28 20:30N 34°33' E 135°14'2 4.7
2017-Nov-28 20:00N 34°35' E 135°14'5 9.4
2017-Nov-28 19:30N 34°35' E 135°08'4 8.8
2017-Nov-28 19:01N 34°36' E 135°03'4 7.0
2017-Nov-28 18:30N 34°37' E 134°59'5 9.7
2017-Nov-28 18:00N 34°35' E 134°53'4 9.0
2017-Nov-28 17:30N 34°33' E 134°49'5 9.3
2017-Nov-28 17:00N 34°31' E 134°43'5 9.7
2017-Nov-28 16:30N 34°29' E 134°38'5 9.9
2017-Nov-28 16:00N 34°28' E 134°33'89 9.5
2017-Nov-28 06:40N 34°04' E 132°49'210.5
2017-Nov-28 06:30N 34°03' E 132°48'510.5
2017-Nov-28 06:00N 33°59' E 132°44'510.3
2017-Nov-28 05:30N 33°55' E 132°39'2010.7
2017-Nov-28 03:36N 33°44' E 132°19'210.1
2017-Nov-28 03:23N 33°43' E 132°16'14 9.9
2017-Nov-28 01:59N 33°43' E 131°60'510.1
2017-Nov-28 01:29N 33°44' E 131°54'510.2
2017-Nov-28 00:59N 33°44' E 131°48'510.1
2017-Nov-28 00:31N 33°46' E 131°42'510.7
2017-Nov-28 00:01N 33°47' E 131°36'510.7
2017-Nov-27 23:30N 33°48' E 131°30'510.8
2017-Nov-27 23:00N 33°49' E 131°23'510.8
2017-Nov-27 22:30N 33°50' E 131°17'510.5
2017-Nov-27 22:00N 33°52' E 131°11'510.5
2017-Nov-27 21:30N 33°55' E 131°06'510.4
2017-Nov-27 21:00N 33°58' E 131°01'5 9.2
2017-Nov-27 20:30N 33°56' E 130°56'3 6.4
2017-Nov-27 20:00N 33°56' E 130°52'5 9.5
2017-Nov-27 19:30N 34°00' E 130°50'5 9.7
2017-Nov-27 19:01N 34°04' E 130°46'510.0
2017-Nov-27 18:30N 34°06' E 130°41'5 9.8
2017-Nov-27 18:00N 34°09' E 130°36'5 9.8
2017-Nov-27 17:31N 34°12' E 130°32'5 9.7
2017-Nov-27 17:00N 34°15' E 130°27'5 9.6
2017-Nov-27 16:30N 34°18' E 130°22'5 9.5
2017-Nov-27 16:00N 34°21' E 130°18'5 9.7
2017-Nov-27 15:30N 34°24' E 130°13'510.0
2017-Nov-27 15:00N 34°27' E 130°08'  
2017-Nov-25 09:28N 34°30' E 130°05'510.5
2017-Nov-25 09:01N 34°27' E 130°09'510.6
2017-Nov-25 08:31N 34°24' E 130°14'510.5
2017-Nov-25 08:00N 34°21' E 130°19'510.6
2017-Nov-25 07:30N 34°17' E 130°25'510.7
2017-Nov-25 07:00N 34°14' E 130°30'510.5
2017-Nov-25 06:31N 34°11' E 130°35'510.6
2017-Nov-25 06:01N 34°08' E 130°40'510.6
2017-Nov-25 05:31N 34°04' E 130°45'510.7
2017-Nov-25 05:01N 34°01' E 130°50'510.8
2017-Nov-25 04:30N 33°56' E 130°53'5 9.0
2017-Nov-25 04:00N 33°58' E 130°58'19510.0
2017-Nov-24 08:29N 34°34' E 134°50'5 7.8
2017-Nov-24 07:52N 34°36' E 134°55'3 8.6
2017-Nov-24 07:30N 34°38' E 134°59'4 7.8
2017-Nov-24 07:00N 34°36' E 135°03'5 9.3
2017-Nov-24 06:30N 34°35' E 135°09'5 9.5
2017-Nov-24 06:00N 34°37' E 135°14'4 7.9
2017-Nov-24 05:30N 34°41' E 135°14'1 1.8
2017-Nov-24 04:59N 34°42' E 135°13'0 0.0
2017-Nov-24 04:17N 34°42' E 135°13'0 0.0
2017-Nov-24 03:59N 34°42' E 135°13'0 0.0
2017-Nov-24 03:23N 34°42' E 135°13'0 0.0
2017-Nov-24 02:59N 34°42' E 135°13'0 0.0
2017-Nov-24 02:29N 34°42' E 135°13'0 0.0
2017-Nov-24 01:47N 34°42' E 135°13'0 0.0
2017-Nov-24 01:29N 34°42' E 135°13'0 0.0
2017-Nov-24 00:59N 34°42' E 135°13'0 0.0
2017-Nov-24 00:29N 34°42' E 135°13'0 0.0
2017-Nov-23 23:59N 34°42' E 135°13'0 0.0
2017-Nov-23 23:29N 34°42' E 135°13'0 0.0
2017-Nov-23 22:59N 34°42' E 135°13'0 0.0
2017-Nov-23 22:29N 34°42' E 135°13'0 0.0
2017-Nov-23 21:59N 34°42' E 135°13'0 0.0
2017-Nov-23 21:29N 34°42' E 135°13'0 0.0
2017-Nov-23 20:59N 34°42' E 135°13'0 0.0
2017-Nov-23 20:23N 34°42' E 135°13'0 0.0
2017-Nov-23 19:53N 34°42' E 135°13'0 0.0
2017-Nov-23 19:29N 34°42' E 135°13'0 0.0
2017-Nov-23 18:53N 34°42' E 135°13'0 0.0
2017-Nov-23 18:29N 34°42' E 135°13'0 0.0
2017-Nov-23 17:53N 34°42' E 135°13'0 0.0
2017-Nov-23 17:23N 34°42' E 135°13'0 0.0
2017-Nov-23 16:59N 34°42' E 135°13'0 0.0
2017-Nov-23 16:29N 34°42' E 135°13'0 0.0
2017-Nov-23 15:59N 34°42' E 135°13'0 0.0
2017-Nov-23 15:29N 34°42' E 135°13'0 0.0
2017-Nov-23 14:47N 34°42' E 135°13'0 0.0
2017-Nov-23 14:23N 34°42' E 135°13'0 0.0
2017-Nov-23 13:59N 34°42' E 135°13'0 0.0
2017-Nov-23 13:29N 34°42' E 135°13'0 0.0
2017-Nov-23 12:53N 34°42' E 135°13'0 0.0
2017-Nov-23 12:29N 34°42' E 135°13'0 0.0
2017-Nov-23 11:59N 34°42' E 135°13'0 0.0
2017-Nov-23 11:29N 34°42' E 135°13'0 0.0
2017-Nov-23 10:59N 34°42' E 135°13'0 0.0
2017-Nov-23 10:29N 34°42' E 135°13'0 0.0
2017-Nov-23 09:41N 34°42' E 135°13'0 0.0
2017-Nov-23 09:29N 34°42' E 135°13'0 0.0
2017-Nov-23 08:41N 34°42' E 135°13'0 0.0
2017-Nov-23 08:29N 34°42' E 135°13'0 0.0
2017-Nov-23 07:59N 34°42' E 135°13'0 0.0
2017-Nov-23 07:23N 34°42' E 135°13'0 0.0
2017-Nov-23 06:59N 34°42' E 135°13'0 0.0
2017-Nov-23 06:05N 34°42' E 135°13'0 0.0
2017-Nov-23 05:53N 34°42' E 135°13'0 0.0
2017-Nov-23 05:23N 34°42' E 135°13'0 0.0
2017-Nov-23 04:59N 34°42' E 135°13'0 0.0
2017-Nov-23 04:29N 34°42' E 135°13'0 0.0
2017-Nov-23 03:59N 34°42' E 135°13'0 0.0
2017-Nov-23 03:29N 34°42' E 135°13'0 0.0
2017-Nov-23 02:53N 34°42' E 135°13'0 0.0
2017-Nov-23 02:23N 34°42' E 135°13'0 0.0
2017-Nov-23 01:59N 34°42' E 135°13'0 0.0
2017-Nov-23 01:29N 34°42' E 135°13'0 0.0
2017-Nov-23 00:59N 34°42' E 135°13'1 1.5
2017-Nov-23 00:31N 34°41' E 135°14'3 5.2
2017-Nov-23 00:00N 34°39' E 135°16'2 3.1
2017-Nov-22 23:26N 34°37' E 135°15'0 0.0
2017-Nov-22 22:56N 34°37' E 135°15'0 0.0
2017-Nov-22 22:26N 34°37' E 135°15'0 0.2
2017-Nov-22 21:59N 34°37' E 135°15'0 0.0
2017-Nov-22 21:29N 34°37' E 135°15'0 0.0
2017-Nov-22 20:59N 34°37' E 135°15'0 0.0
2017-Nov-22 20:29N 34°37' E 135°15'0 0.0
2017-Nov-22 19:59N 34°37' E 135°15'0 0.0
2017-Nov-22 19:20N 34°37' E 135°15'  

Dump ship's entire track history